Time;durP1;ratioP1;P1;durP2;ratioP2;P2;SDS_P1;SDS_P2;PMS_P1;PMS_P2;Temp;Humidity;BMP_temperature;BMP_pressure;BME280_temperature;BME280_humidity;BME280_pressure;Samples;Min_cycle;Max_cycle;Signal;HPM_P1;HPM_P2
2023/03/31 00:00:52;;;;;;;6.07;2.40;;;;;;;16.96;45.23;98154.53;7063479;27;20214;-77
2023/03/31 00:04:13;;;;;;;5.23;2.30;;;;;;;17.02;45.32;98150.75;7081858;27;20321;-77
2023/03/31 00:07:37;;;;;;;5.20;2.30;;;;;;;17.00;44.82;98125.69;7080793;27;20213;-79
2023/03/31 00:11:00;;;;;;;5.57;2.33;;;;;;;16.94;45.21;98146.66;7080875;27;20228;-77
2023/03/31 00:14:21;;;;;;;2.60;2.13;;;;;;;16.93;45.16;98127.84;7081125;27;20266;-78
2023/03/31 00:17:43;;;;;;;2.93;2.67;;;;;;;17.42;44.24;98121.91;7080876;27;20758;-77
2023/03/31 00:21:13;;;;;;;7.07;2.60;;;;;;;16.99;44.61;98105.00;7080467;27;20206;-77
2023/03/31 00:24:36;;;;;;;9.23;3.10;;;;;;;16.80;45.65;98123.66;7081183;27;20746;-78
2023/03/31 00:27:57;;;;;;;4.00;2.33;;;;;;;16.93;45.36;98108.78;7080934;27;20260;-77
2023/03/31 00:31:19;;;;;;;8.43;2.97;;;;;;;16.39;45.93;98066.47;7080874;27;20233;-77
2023/03/31 00:34:41;;;;;;;5.37;2.67;;;;;;;16.54;46.78;98104.66;7080979;27;20225;-78
2023/03/31 00:38:02;;;;;;;3.30;2.30;;;;;;;16.46;46.51;98091.53;7080765;27;20205;-77
2023/03/31 00:41:25;;;;;;;7.63;2.57;;;;;;;16.41;47.11;98086.88;7080759;27;20200;-77
2023/03/31 00:45:20;;;;;;;6.07;2.97;;;;;;;16.46;47.16;98088.81;7078646;27;20229;-78
2023/03/31 00:48:47;;;;;;;5.53;2.70;;;;;;;16.23;47.07;98075.53;7080317;27;20208;-78
2023/03/31 00:52:12;;;;;;;5.87;2.60;;;;;;;16.27;47.39;98071.22;7079471;27;20730;-79
2023/03/31 00:55:36;;;;;;;8.17;2.70;;;;;;;16.03;47.00;98037.25;7081948;27;20187;-79
2023/03/31 00:59:02;;;;;;;6.40;2.70;;;;;;;16.30;47.14;98052.47;7080044;27;20203;-79
2023/03/31 01:02:25;;;;;;;7.73;3.03;;;;;;;15.90;47.97;98064.88;7067030;27;20232;-78
2023/03/31 01:05:49;;;;;;;6.17;2.50;;;;;;;16.09;47.72;98055.25;7049991;28;20203;-78
2023/03/31 01:09:11;;;;;;;6.83;2.67;;;;;;;16.16;47.43;98069.47;7050290;28;20206;-78
2023/03/31 01:12:34;;;;;;;5.73;2.50;;;;;;;16.78;45.78;98049.59;7049419;28;20286;-79
2023/03/31 01:15:57;;;;;;;6.50;2.30;;;;;;;16.55;46.73;98060.03;7052016;28;20275;-79
2023/03/31 01:19:26;;;;;;;6.03;2.50;;;;;;;16.62;46.41;98052.44;7051816;28;20211;-77
2023/03/31 01:23:08;;;;;;;5.70;2.73;;;;;;;16.56;45.96;98059.78;7050730;28;20226;-79
2023/03/31 01:26:49;;;;;;;4.63;2.50;;;;;;;16.42;46.35;98045.00;7051883;28;20260;-80
2023/03/31 01:30:34;;;;;;;6.07;2.47;;;;;;;17.08;44.84;98021.69;7021690;28;20230;-78
2023/03/31 01:34:27;;;;;;;7.73;3.00;;;;;;;17.39;44.05;97999.00;7026858;28;20263;-79
2023/03/31 01:38:25;;;;;;;4.87;2.27;;;;;;;17.22;44.83;97998.34;7057549;28;20244;-79
2023/03/31 01:41:55;;;;;;;7.80;3.03;;;;;;;17.14;45.27;97991.50;7033452;28;20199;-78
2023/03/31 01:45:27;;;;;;;7.07;2.60;;;;;;;16.83;45.96;97988.91;7057289;27;20200;-79
2023/03/31 01:48:53;;;;;;;7.87;2.60;;;;;;;16.77;46.34;97996.25;7057249;28;20192;-79
2023/03/31 01:52:20;;;;;;;4.97;2.57;;;;;;;16.49;47.33;98003.94;7056134;28;20263;-78
2023/03/31 01:55:46;;;;;;;5.73;2.67;;;;;;;16.04;47.94;98001.66;7056623;28;20532;-78
2023/03/31 01:59:12;;;;;;;8.53;2.70;;;;;;;16.12;48.00;98006.63;7056755;28;20577;-78
2023/03/31 02:02:37;;;;;;;5.83;2.57;;;;;;;16.48;46.52;98029.50;7056093;28;20234;-79
2023/03/31 02:06:02;;;;;;;4.27;2.40;;;;;;;16.63;45.93;98033.16;7056681;28;20230;-77
2023/03/31 02:09:25;;;;;;;6.07;2.70;;;;;;;16.42;46.50;98039.53;7056498;28;20355;-80
2023/03/31 02:12:48;;;;;;;4.23;2.73;;;;;;;16.69;46.09;98023.94;7056024;28;20228;-78
2023/03/31 02:16:16;;;;;;;5.00;2.37;;;;;;;16.37;46.31;98027.75;7056419;28;20205;-78
2023/03/31 02:19:40;;;;;;;8.20;3.67;;;;;;;16.54;44.75;97995.81;7055925;28;20234;-78
2023/03/31 02:23:02;;;;;;;5.87;2.90;;;;;;;17.12;44.16;98018.19;7055868;28;20231;-77
2023/03/31 02:26:26;;;;;;;4.23;2.60;;;;;;;16.99;44.40;98006.97;7055563;28;20264;-77
2023/03/31 02:29:47;;;;;;;5.57;2.93;;;;;;;16.85;45.11;98003.91;7055436;28;20950;-78
2023/03/31 02:33:10;;;;;;;5.00;2.60;;;;;;;16.86;44.97;97997.34;7055500;28;20237;-79
2023/03/31 02:36:32;;;;;;;5.90;2.50;;;;;;;17.41;44.68;97991.34;7060389;27;20303;-77
2023/03/31 02:39:55;;;;;;;5.53;2.60;;;;;;;16.90;46.40;97986.75;7083233;27;20214;-77
2023/03/31 02:43:17;;;;;;;5.17;2.50;;;;;;;17.26;45.89;97977.63;7084088;27;20249;-78
2023/03/31 02:46:39;;;;;;;4.57;2.33;;;;;;;17.08;46.63;97967.22;7084014;27;20207;-78
2023/03/31 02:50:04;;;;;;;8.30;2.80;;;;;;;17.22;46.18;97944.66;7083042;27;20278;-78
2023/03/31 02:53:32;;;;;;;6.53;2.83;;;;;;;16.86;46.56;97888.44;7083438;27;20233;-77
2023/03/31 02:57:12;;;;;;;5.37;2.50;;;;;;;17.29;46.33;97909.81;7083876;27;20241;-77
2023/03/31 03:00:41;;;;;;;7.40;3.00;;;;;;;17.33;46.36;97893.78;7082801;27;20224;-78
2023/03/31 03:04:12;;;;;;;5.73;2.67;;;;;;;17.32;46.31;97898.38;7055479;27;20224;-78
2023/03/31 03:07:39;;;;;;;5.33;2.70;;;;;;;16.95;47.49;97883.31;7055395;28;20192;-78
2023/03/31 03:11:06;;;;;;;4.30;2.80;;;;;;;17.18;47.17;97874.66;7054781;28;20281;-77
2023/03/31 03:14:30;;;;;;;4.10;2.90;;;;;;;16.46;49.01;97855.63;7054848;28;20221;-78
2023/03/31 03:17:53;;;;;;;6.00;2.57;;;;;;;16.56;49.11;97842.06;7054597;28;20259;-77
2023/03/31 03:21:14;;;;;;;5.00;2.60;;;;;;;16.81;48.01;97822.28;7054398;28;20610;-78
2023/03/31 03:24:38;;;;;;;5.67;2.60;;;;;;;16.87;47.81;97810.31;7054245;28;20288;-77
2023/03/31 03:28:00;;;;;;;8.23;2.80;;;;;;;16.54;48.69;97803.44;7054179;28;20221;-78
2023/03/31 03:31:24;;;;;;;5.13;2.73;;;;;;;16.73;48.57;97790.97;7053555;28;20593;-79
2023/03/31 03:34:46;;;;;;;5.43;3.00;;;;;;;16.75;48.46;97777.09;7054425;28;20724;-79
2023/03/31 03:38:07;;;;;;;7.43;2.73;;;;;;;16.79;48.37;97772.72;7053898;28;20243;-77
2023/03/31 03:41:32;;;;;;;5.10;3.00;;;;;;;16.59;48.71;97770.81;7053829;28;20615;-78
2023/03/31 03:44:53;;;;;;;8.23;2.83;;;;;;;16.39;49.63;97743.50;7054058;28;20224;-77
2023/03/31 03:48:15;;;;;;;5.53;3.27;;;;;;;16.13;50.66;97762.69;7053991;28;20274;-78
2023/03/31 03:51:36;;;;;;;4.47;2.70;;;;;;;16.07;50.44;97747.44;7052811;28;20227;-77
2023/03/31 03:54:57;;;;;;;5.80;3.00;;;;;;;16.05;49.95;97730.59;7053330;28;20227;-77
2023/03/31 03:58:20;;;;;;;4.27;2.80;;;;;;;16.10;49.78;97723.25;7053807;28;20615;-78
2023/03/31 04:01:42;;;;;;;4.67;2.60;;;;;;;16.21;49.67;97732.28;7059803;27;20204;-77
2023/03/31 04:05:04;;;;;;;4.57;2.97;;;;;;;16.05;50.53;97725.94;7081492;27;20703;-78
2023/03/31 04:08:26;;;;;;;4.73;3.00;;;;;;;16.25;49.82;97720.59;7081845;27;20216;-76
2023/03/31 04:11:47;;;;;;;6.20;3.20;;;;;;;16.04;50.27;97702.56;7080748;27;20236;-78
2023/03/31 04:15:11;;;;;;;4.70;2.43;;;;;;;16.06;50.14;97694.16;7081651;27;20208;-79
2023/03/31 04:18:32;;;;;;;5.90;3.20;;;;;;;15.95;50.12;97685.16;7080888;27;20202;-77
2023/03/31 04:22:01;;;;;;;7.20;3.17;;;;;;;15.78;50.16;97656.53;7069373;27;20260;-77
2023/03/31 04:25:23;;;;;;;5.00;3.23;;;;;;;15.96;50.27;97667.75;7079520;27;20607;-77
2023/03/31 04:28:49;;;;;;;5.83;3.23;;;;;;;16.10;49.84;97625.38;7077305;27;20259;-77
2023/03/31 04:32:13;;;;;;;6.93;3.13;;;;;;;16.01;50.31;97637.03;7076168;27;20266;-77
2023/03/31 04:35:48;;;;;;;5.13;3.17;;;;;;;16.01;50.17;97628.88;7069329;27;20204;-77
2023/03/31 04:39:10;;;;;;;5.77;3.20;;;;;;;15.46;51.74;97628.69;7076210;27;20622;-77
2023/03/31 04:42:32;;;;;;;8.83;3.80;;;;;;;15.55;52.15;97633.34;7079724;27;20221;-77
2023/03/31 04:45:53;;;;;;;9.33;4.17;;;;;;;15.56;51.61;97637.69;7079918;27;20210;-77
2023/03/31 04:49:16;;;;;;;7.93;3.37;;;;;;;15.22;52.78;97646.44;7080631;27;20650;-78
2023/03/31 04:52:38;;;;;;;8.30;3.83;;;;;;;14.80;54.11;97638.25;7079634;27;20271;-77
2023/03/31 04:56:00;;;;;;;7.03;3.40;;;;;;;15.50;51.94;97617.00;7080694;27;20297;-76
2023/03/31 04:59:21;;;;;;;7.87;3.70;;;;;;;15.04;52.78;97609.66;7071470;27;20278;-77
2023/03/31 05:02:43;;;;;;;4.10;3.30;;;;;;;15.39;51.72;97584.66;7050572;28;20224;-77
2023/03/31 05:06:07;;;;;;;5.17;3.40;;;;;;;15.68;51.12;97604.88;7072852;27;20652;-76
2023/03/31 05:09:28;;;;;;;7.43;2.90;;;;;;;15.98;50.12;97599.53;7079431;27;20205;-77
2023/03/31 05:12:50;;;;;;;6.80;3.60;;;;;;;16.27;49.56;97592.50;7079943;28;20679;-77
2023/03/31 05:16:13;;;;;;;6.63;3.90;;;;;;;15.96;50.11;97588.09;7079889;28;20343;-76
2023/03/31 05:19:35;;;;;;;6.17;3.67;;;;;;;15.84;50.63;97576.63;7079737;28;20211;-77
2023/03/31 05:22:57;;;;;;;6.77;3.80;;;;;;;15.86;51.31;97597.03;7080124;28;20225;-77
2023/03/31 05:26:21;;;;;;;6.43;3.27;;;;;;;15.79;51.69;97585.59;7079657;28;20203;-76
2023/03/31 05:29:43;;;;;;;8.77;4.30;;;;;;;15.86;52.20;97631.56;7079519;28;20205;-76
2023/03/31 05:33:05;;;;;;;7.73;4.10;;;;;;;15.73;53.16;97634.75;7079775;28;20679;-77
2023/03/31 05:36:26;;;;;;;10.53;4.73;;;;;;;15.53;54.08;97657.25;7073860;28;20210;-78
2023/03/31 05:39:49;;;;;;;7.03;4.30;;;;;;;15.73;54.31;97672.81;7079393;28;20260;-76
2023/03/31 05:43:10;;;;;;;8.40;4.00;;;;;;;15.61;54.67;97662.16;7079348;28;20227;-78
2023/03/31 05:46:32;;;;;;;5.17;3.73;;;;;;;15.22;55.69;97654.59;7080042;28;20210;-76
2023/03/31 05:49:53;;;;;;;9.63;4.50;;;;;;;15.29;55.68;97652.44;7079307;28;20525;-76
2023/03/31 05:53:15;;;;;;;6.37;4.10;;;;;;;15.35;56.33;97644.13;7074967;28;20225;-78
2023/03/31 05:56:38;;;;;;;9.87;4.43;;;;;;;15.27;56.83;97630.19;7051341;28;20257;-76
2023/03/31 05:59:59;;;;;;;8.63;4.47;;;;;;;15.22;56.95;97616.56;7050331;28;20230;-77
2023/03/31 06:03:21;;;;;;;8.67;4.20;;;;;;;15.40;56.66;97602.56;7055844;27;20220;-77
2023/03/31 06:06:43;;;;;;;6.70;4.40;;;;;;;15.65;56.51;97592.63;7061433;28;20209;-76
2023/03/31 06:10:07;;;;;;;8.53;4.47;;;;;;;15.69;56.84;97582.84;7075753;28;20205;-76
2023/03/31 06:13:29;;;;;;;7.77;4.40;;;;;;;15.57;57.36;97574.09;7074149;28;20284;-76
2023/03/31 06:16:51;;;;;;;7.53;4.30;;;;;;;15.50;57.68;97570.84;7080515;27;20615;-76
2023/03/31 06:20:13;;;;;;;8.57;4.60;;;;;;;15.22;58.72;97545.97;7083874;27;20204;-76
2023/03/31 06:23:34;;;;;;;10.60;4.93;;;;;;;15.42;58.62;97552.34;7083895;27;20226;-77
2023/03/31 06:26:56;;;;;;;10.93;5.40;;;;;;;15.30;58.78;97550.88;7084322;27;20740;-76
2023/03/31 06:30:19;;;;;;;10.73;5.30;;;;;;;15.32;59.20;97548.72;7083363;27;20261;-76
2023/03/31 06:33:41;;;;;;;9.10;5.10;;;;;;;15.14;59.50;97528.28;7068822;27;20304;-76
2023/03/31 06:37:03;;;;;;;15.80;5.73;;;;;;;15.17;59.81;97530.47;7055215;28;20189;-76
2023/03/31 06:40:25;;;;;;;7.67;4.60;;;;;;;15.32;59.47;97530.56;7054841;28;20206;-78
2023/03/31 06:43:46;;;;;;;7.90;4.50;;;;;;;15.24;59.69;97530.22;7054013;28;20221;-76
2023/03/31 06:47:09;;;;;;;9.43;5.23;;;;;;;15.33;59.62;97534.91;7055261;28;20212;-76
2023/03/31 06:50:31;;;;;;;6.40;4.57;;;;;;;15.28;60.22;97550.34;7054579;28;20213;-78
2023/03/31 06:53:52;;;;;;;13.17;5.07;;;;;;;15.29;60.08;97550.06;7055380;28;20278;-76
2023/03/31 06:57:14;;;;;;;11.70;5.67;;;;;;;15.27;60.17;97556.88;7069292;27;20210;-77
2023/03/31 07:00:35;;;;;;;12.67;5.43;;;;;;;15.28;60.38;97575.59;7081542;27;20204;-77
2023/03/31 07:03:58;;;;;;;10.17;5.63;;;;;;;15.00;61.56;97584.16;7083427;27;20564;-76
2023/03/31 07:07:20;;;;;;;10.33;5.87;;;;;;;14.90;61.82;97594.94;7082985;27;20234;-77
2023/03/31 07:10:41;;;;;;;8.83;4.80;;;;;;;14.85;61.90;97621.19;7082826;27;20209;-76
2023/03/31 07:14:03;;;;;;;9.33;5.00;;;;;;;14.89;62.42;97638.59;7082220;27;20229;-76
2023/03/31 07:17:24;;;;;;;6.23;4.10;;;;;;;14.53;61.79;97645.66;7082442;27;20241;-77
2023/03/31 07:20:49;;;;;;;8.57;4.60;;;;;;;14.73;61.79;97628.69;7082361;27;20684;-76
2023/03/31 07:24:11;;;;;;;6.97;4.40;;;;;;;14.44;62.72;97589.41;7082994;27;20751;-76
2023/03/31 07:27:32;;;;;;;4.43;3.23;;;;;;;14.72;61.12;97578.25;7081501;27;20204;-76
2023/03/31 07:30:53;;;;;;;8.07;3.60;;;;;;;14.80;59.17;97534.34;7082858;27;20259;-77
2023/03/31 07:34:15;;;;;;;4.93;2.87;;;;;;;14.11;61.30;97501.00;7068829;27;20358;-76
2023/03/31 07:37:38;;;;;;;3.67;3.27;;;;;;;14.43;61.10;97485.56;7054176;28;20202;-77
2023/03/31 07:41:00;;;;;;;6.70;3.37;;;;;;;14.41;61.24;97528.41;7098729;27;20650;-77
2023/03/31 07:44:22;;;;;;;6.40;3.50;;;;;;;14.66;61.19;97544.84;7109020;27;20225;-78
2023/03/31 07:47:45;;;;;;;5.30;3.17;;;;;;;14.68;60.75;97534.53;7110589;27;20333;-77
2023/03/31 07:51:06;;;;;;;4.13;3.30;;;;;;;14.74;60.71;97548.97;7099306;27;20262;-77
2023/03/31 07:54:29;;;;;;;3.27;2.80;;;;;;;15.27;58.29;97541.38;7054021;28;20227;-77
2023/03/31 07:57:50;;;;;;;5.53;3.03;;;;;;;14.91;57.94;97504.28;7053569;28;20206;-76
2023/03/31 08:01:15;;;;;;;4.60;3.13;;;;;;;15.83;57.10;97535.06;7052823;28;20249;-77
2023/03/31 08:04:37;;;;;;;2.80;2.60;;;;;;;15.54;56.72;97520.31;7077662;27;20703;-77
2023/03/31 08:07:58;;;;;;;3.23;2.93;;;;;;;15.76;56.10;97525.53;7081334;27;20232;-78
2023/03/31 08:11:21;;;;;;;4.03;2.90;;;;;;;16.20;55.69;97535.66;7080582;27;20769;-78
2023/03/31 08:14:44;;;;;;;3.97;2.30;;;;;;;16.51;53.63;97525.63;7079901;27;20225;-78
2023/03/31 08:18:05;;;;;;;2.40;2.13;;;;;;;16.60;52.67;97508.47;7081102;27;20274;-76
2023/03/31 08:21:28;;;;;;;2.97;2.53;;;;;;;16.17;54.44;97513.63;7080632;27;20268;-77
2023/03/31 08:24:49;;;;;;;2.30;2.20;;;;;;;17.25;52.16;97499.28;7080938;27;20640;-78
2023/03/31 08:28:12;;;;;;;2.03;1.80;;;;;;;17.51;51.10;97506.28;7081246;27;20204;-77
2023/03/31 08:31:34;;;;;;;2.47;1.83;;;;;;;17.70;50.67;97480.00;7079928;27;20368;-77
2023/03/31 08:34:55;;;;;;;3.30;1.70;;;;;;;18.79;48.73;97494.66;7080329;27;20231;-77
2023/03/31 08:38:17;;;;;;;3.30;1.90;;;;;;;18.55;47.88;97471.97;7078798;27;20329;-78
2023/03/31 08:41:47;;;;;;;1.73;1.63;;;;;;;17.92;50.32;97494.84;7079990;27;20240;-78
2023/03/31 08:45:17;;;;;;;1.80;1.70;;;;;;;18.64;48.01;97480.38;7080295;27;20219;-77
2023/03/31 08:48:44;;;;;;;3.27;2.67;;;;;;;18.30;48.79;97477.66;7079154;27;20194;-77
2023/03/31 08:52:09;;;;;;;3.83;2.87;;;;;;;18.23;48.75;97476.34;7079122;27;20279;-76
2023/03/31 08:55:40;;;;;;;2.20;2.00;;;;;;;18.61;47.94;97480.91;7080413;27;20274;-77
2023/03/31 08:59:02;;;;;;;1.90;1.70;;;;;;;18.94;47.67;97482.78;7080132;27;20199;-78
2023/03/31 09:02:29;;;;;;;3.20;1.83;;;;;;;19.01;47.83;97483.22;7079166;27;20225;-77
2023/03/31 09:05:58;;;;;;;2.10;1.73;;;;;;;19.56;46.41;97464.25;7080105;27;20191;-77
2023/03/31 09:09:26;;;;;;;2.53;1.90;;;;;;;19.66;46.65;97471.50;7080197;27;20280;-77
2023/03/31 09:12:53;;;;;;;2.47;1.67;;;;;;;20.83;44.68;97462.72;7079543;27;20223;-76
2023/03/31 09:16:16;;;;;;;4.17;2.00;;;;;;;20.00;45.14;97459.22;7080023;27;20191;-76
2023/03/31 09:19:41;;;;;;;3.37;1.70;;;;;;;20.08;44.49;97446.81;7079300;28;20265;-76
2023/03/31 09:23:08;;;;;;;3.27;2.70;;;;;;;20.46;43.76;97431.94;7080076;28;20219;-77
2023/03/31 09:26:36;;;;;;;2.50;1.80;;;;;;;19.58;43.93;97431.94;7080619;28;20626;-77
2023/03/31 09:30:00;;;;;;;3.40;1.87;;;;;;;19.52;44.08;97421.41;7078915;28;20184;-77
2023/03/31 09:33:27;;;;;;;3.50;1.70;;;;;;;19.40;44.04;97423.75;7079292;28;20275;-79
2023/03/31 09:36:51;;;;;;;5.40;2.30;;;;;;;19.29;43.50;97427.72;7079676;28;20195;-77
2023/03/31 09:40:17;;;;;;;3.67;2.27;;;;;;;19.43;43.15;97418.50;7078165;28;20214;-78
2023/03/31 09:43:40;;;;;;;3.37;2.50;;;;;;;18.66;45.02;97423.53;7080559;28;20286;-78
2023/03/31 09:47:02;;;;;;;4.73;2.03;;;;;;;18.62;43.62;97427.94;7078564;28;20336;-79
2023/03/31 09:50:25;;;;;;;2.93;1.93;;;;;;;18.11;44.06;97437.72;7079415;27;20197;-79
2023/03/31 09:53:51;;;;;;;3.70;2.00;;;;;;;18.16;42.84;97440.41;7085189;27;20228;-79
2023/03/31 09:57:14;;;;;;;3.03;1.70;;;;;;;18.31;43.96;97471.13;7084974;27;20221;-78
2023/03/31 10:00:36;;;;;;;3.33;1.80;;;;;;;17.24;50.35;97438.56;7084322;27;20609;-79
2023/03/31 10:03:58;;;;;;;3.97;2.03;;;;;;;17.81;47.84;97437.97;7083535;27;20706;-78
2023/03/31 10:07:21;;;;;;;4.03;1.70;;;;;;;18.97;47.22;97436.56;7084817;27;20208;-79
2023/03/31 10:10:46;;;;;;;3.93;2.47;;;;;;;18.23;44.37;97406.22;7082652;27;20200;-79
2023/03/31 10:14:13;;;;;;;6.07;2.50;;;;;;;18.47;43.57;97393.47;7084500;27;20682;-78
2023/03/31 10:17:39;;;;;;;4.10;2.03;;;;;;;18.66;43.83;97396.25;7084306;27;20252;-79
2023/03/31 10:21:02;;;;;;;7.60;2.50;;;;;;;19.51;41.53;97384.22;7082708;27;20267;-78
2023/03/31 10:24:24;;;;;;;6.50;3.03;;;;;;;19.37;42.25;97384.16;7084214;27;20220;-79
2023/03/31 10:27:48;;;;;;;3.50;2.10;;;;;;;20.38;40.60;97375.94;7083863;27;20256;-80
2023/03/31 10:31:10;;;;;;;6.60;2.50;;;;;;;20.65;38.54;97377.88;7083377;27;20292;-78
2023/03/31 10:34:32;;;;;;;6.33;2.47;;;;;;;19.93;38.53;97373.16;7067241;27;20228;-78
2023/03/31 10:37:55;;;;;;;7.03;2.67;;;;;;;20.11;38.28;97369.59;7055672;28;20204;-76
2023/03/31 10:41:18;;;;;;;5.13;2.50;;;;;;;19.34;39.54;97362.88;7055016;28;20692;-76
2023/03/31 10:44:41;;;;;;;5.17;2.17;;;;;;;19.45;39.29;97347.16;7055133;28;20224;-77
2023/03/31 10:48:03;;;;;;;4.57;2.20;;;;;;;20.12;39.05;97352.88;7054716;28;20275;-76
2023/03/31 10:51:26;;;;;;;2.67;1.60;;;;;;;20.20;37.72;97354.09;7054120;28;20217;-76
2023/03/31 10:54:50;;;;;;;5.23;2.17;;;;;;;19.75;36.83;97336.50;7055925;28;20667;-77
2023/03/31 10:58:21;;;;;;;4.57;2.77;;;;;;;19.65;37.71;97350.38;7055123;28;20235;-77
2023/03/31 11:02:00;;;;;;;6.13;2.37;;;;;;;19.24;37.31;97334.88;7054366;28;20607;-76
2023/03/31 11:05:28;;;;;;;7.63;1.90;;;;;;;18.91;36.79;97289.41;7054222;28;20311;-75
2023/03/31 11:08:58;;;;;;;5.60;2.10;;;;;;;19.28;37.02;97322.25;7054594;28;20303;-75
2023/03/31 11:12:23;;;;;;;7.10;2.20;;;;;;;20.03;36.01;97315.50;7071094;27;20295;-76
2023/03/31 11:15:51;;;;;;;5.80;2.80;;;;;;;19.65;35.55;97317.56;7073703;27;20344;-76
2023/03/31 11:19:25;;;;;;;5.17;2.60;;;;;;;19.89;36.29;97290.88;7082620;27;20298;-76
2023/03/31 11:22:52;;;;;;;5.77;2.50;;;;;;;19.71;35.29;97297.22;7082092;27;20223;-75
2023/03/31 11:26:17;;;;;;;6.30;2.30;;;;;;;19.02;36.25;97291.72;7082904;27;20296;-77
2023/03/31 11:29:42;;;;;;;3.87;2.20;;;;;;;18.53;37.78;97335.00;7080899;27;20248;-76
2023/03/31 11:33:19;;;;;;;4.37;2.40;;;;;;;17.39;44.69;97470.38;7082396;27;20231;-75
2023/03/31 11:36:58;;;;;;;4.63;1.77;;;;;;;14.25;57.14;97559.19;7082099;27;20194;-75
2023/03/31 11:40:34;;;;;;;3.60;2.50;;;;;;;13.93;57.31;97531.19;7080594;27;20262;-76
2023/03/31 11:43:59;;;;;;;1.67;1.57;;;;;;;13.73;57.39;97503.09;7081891;27;20229;-76
2023/03/31 11:47:22;;;;;;;3.33;1.53;;;;;;;14.15;55.10;97490.50;7081885;27;20193;-76
2023/03/31 11:50:46;;;;;;;1.43;1.33;;;;;;;14.18;55.96;97504.34;7081258;27;20311;-78
2023/03/31 11:54:14;;;;;;;2.10;1.30;;;;;;;14.22;55.09;97510.88;7081443;27;20241;-77
2023/03/31 11:57:40;;;;;;;4.20;1.50;;;;;;;14.55;53.90;97498.91;7081886;27;20329;-76
2023/03/31 12:01:08;;;;;;;1.90;1.43;;;;;;;14.40;53.72;97475.22;7081270;27;20316;-77
2023/03/31 12:04:33;;;;;;;1.40;1.30;;;;;;;14.36;54.46;97492.28;7081289;27;20223;-76
2023/03/31 12:07:59;;;;;;;1.63;1.30;;;;;;;14.13;54.40;97489.91;7081798;27;20270;-78
2023/03/31 12:11:27;;;;;;;1.60;1.50;;;;;;;14.85;51.66;97480.09;7077795;27;20205;-78
2023/03/31 12:14:53;;;;;;;2.37;1.30;;;;;;;15.47;51.21;97418.44;7080689;27;20231;-76
2023/03/31 12:18:18;;;;;;;1.50;1.33;;;;;;;16.35;49.14;97443.16;7081009;27;20185;-77
2023/03/31 12:21:43;;;;;;;1.30;1.20;;;;;;;15.97;51.12;97478.25;7078624;27;20266;-78
2023/03/31 12:25:06;;;;;;;1.10;1.10;;;;;;;16.72;48.29;97440.13;7081176;27;20310;-77
2023/03/31 12:28:31;;;;;;;1.20;1.20;;;;;;;17.07;47.71;97431.81;7081191;27;20203;-77
2023/03/31 12:31:55;;;;;;;1.53;1.07;;;;;;;17.16;46.63;97436.41;7079469;27;20199;-76
2023/03/31 12:35:21;;;;;;;3.20;1.40;;;;;;;16.76;47.83;97444.72;7075581;27;20235;-76
2023/03/31 12:38:54;;;;;;;1.40;1.30;;;;;;;17.17;45.99;97434.50;7080962;27;20730;-77
2023/03/31 12:42:48;;;;;;;1.67;1.50;;;;;;;18.05;46.70;97396.00;7080195;27;20317;-77
2023/03/31 12:46:21;;;;;;;1.60;1.50;;;;;;;16.64;45.59;97394.44;7079802;27;20576;-77
2023/03/31 12:49:51;;;;;;;1.33;1.10;;;;;;;16.73;46.60;97392.75;7079643;27;20213;-78
2023/03/31 12:53:20;;;;;;;1.20;1.10;;;;;;;17.37;45.49;97366.28;7079896;27;20230;-76
2023/03/31 12:57:14;;;;;;;2.30;1.40;;;;;;;18.22;44.43;97371.84;7080742;27;20279;-75
2023/03/31 13:00:35;;;;;;;1.53;1.20;;;;;;;18.27;43.05;97363.63;7066891;27;20208;-75
2023/03/31 13:04:20;;;;;;;1.40;1.30;;;;;;;18.82;41.40;97349.34;7080117;27;20356;-78
2023/03/31 13:07:42;;;;;;;1.63;1.20;;;;;;;18.67;40.88;97346.00;7080034;27;20188;-76
2023/03/31 13:11:03;;;;;;;2.13;1.20;;;;;;;18.29;40.99;97339.56;7079589;27;20215;-77
2023/03/31 13:14:28;;;;;;;1.93;1.27;;;;;;;18.87;41.94;97337.56;7079652;27;20275;-75
2023/03/31 13:17:56;;;;;;;2.87;1.90;;;;;;;17.71;41.50;97350.78;7080209;27;20204;-76
2023/03/31 13:21:19;;;;;;;4.60;1.90;;;;;;;17.44;42.31;97343.09;7077706;28;20188;-77
2023/03/31 13:24:41;;;;;;;3.93;2.10;;;;;;;17.35;43.26;97342.03;7081600;27;20234;-76
2023/03/31 13:28:12;;;;;;;3.47;1.70;;;;;;;17.29;43.36;97331.47;7086079;27;20203;-76
2023/03/31 13:32:09;;;;;;;3.67;1.80;;;;;;;17.47;42.05;97325.38;7084603;27;20193;-78
2023/03/31 13:35:32;;;;;;;3.63;1.23;;;;;;;16.08;45.16;97358.38;7086094;27;20211;-75
2023/03/31 13:39:05;;;;;;;2.83;1.50;;;;;;;16.16;45.93;97387.72;7079774;27;20207;-77
2023/03/31 13:42:50;;;;;;;7.17;1.97;;;;;;;16.09;46.24;97375.47;7065917;27;20227;-76
2023/03/31 13:46:44;;;;;;;3.13;1.73;;;;;;;15.94;47.32;97373.63;7069967;27;20218;-76
2023/03/31 13:50:17;;;;;;;1.73;1.63;;;;;;;16.22;45.68;97383.09;7084229;27;20534;-76
2023/03/31 13:54:00;;;;;;;1.60;1.50;;;;;;;16.37;45.64;97396.66;7083924;27;20234;-79
2023/03/31 13:57:53;;;;;;;1.33;1.23;;;;;;;16.86;45.51;97416.69;7085478;27;20190;-76
2023/03/31 14:01:45;;;;;;;1.63;1.30;;;;;;;16.06;47.25;97424.97;7083577;27;20251;-76
2023/03/31 14:05:18;;;;;;;0.90;0.90;;;;;;;14.78;48.21;97379.13;7084535;27;20230;-77
2023/03/31 14:08:47;;;;;;;1.53;1.10;;;;;;;15.01;47.98;97384.09;7061106;27;20262;-85
2023/03/31 14:12:22;;;;;;;1.13;1.13;;;;;;;14.89;47.90;97337.38;7057148;27;20223;-76
2023/03/31 14:15:47;;;;;;;1.47;1.37;;;;;;;15.06;46.93;97327.13;7055993;28;20309;-77
2023/03/31 14:19:23;;;;;;;1.20;1.10;;;;;;;15.00;47.32;97341.75;7056419;28;20664;-76
2023/03/31 14:22:48;;;;;;;1.37;1.27;;;;;;;15.31;47.60;97332.56;7057737;27;20713;-76
2023/03/31 14:26:16;;;;;;;1.03;1.03;;;;;;;15.55;45.75;97326.38;7056294;28;20194;-76
2023/03/31 14:29:46;;;;;;;1.20;1.10;;;;;;;16.64;43.27;97313.59;7055356;28;20263;-75
2023/03/31 14:33:17;;;;;;;1.23;1.13;;;;;;;16.74;43.43;97323.66;7055607;28;20254;-77
2023/03/31 14:36:46;;;;;;;1.17;1.10;;;;;;;17.18;43.43;97322.56;7054833;28;20192;-76
2023/03/31 14:40:12;;;;;;;1.37;1.23;;;;;;;16.94;42.64;97339.84;7064242;27;20243;-77
2023/03/31 14:43:35;;;;;;;1.57;1.47;;;;;;;16.17;43.41;97326.78;7055303;28;20261;-76
2023/03/31 14:46:58;;;;;;;1.67;1.53;;;;;;;16.39;43.96;97351.78;7054836;28;20260;-76
2023/03/31 14:50:20;;;;;;;1.20;1.10;;;;;;;16.37;44.53;97331.38;7053246;28;20208;-78
2023/03/31 14:53:42;;;;;;;1.60;1.50;;;;;;;16.77;44.71;97336.69;7055261;28;20234;-77
2023/03/31 14:57:04;;;;;;;1.27;1.17;;;;;;;17.07;43.36;97310.09;7055314;28;20214;-77
2023/03/31 15:00:27;;;;;;;1.40;1.30;;;;;;;17.19;43.83;97321.47;7053734;28;20204;-77
2023/03/31 15:03:51;;;;;;;1.50;1.40;;;;;;;16.69;44.98;97310.06;7055022;28;20267;-76
2023/03/31 15:07:13;;;;;;;2.10;1.50;;;;;;;16.64;45.74;97321.75;7054960;28;20204;-77
2023/03/31 15:10:37;;;;;;;1.40;1.30;;;;;;;16.90;45.13;97309.66;7054310;28;20260;-77
2023/03/31 15:13:59;;;;;;;1.60;1.50;;;;;;;16.64;45.30;97293.75;7054835;28;20597;-75
2023/03/31 15:17:22;;;;;;;2.03;1.30;;;;;;;16.79;46.08;97286.31;7054468;28;20487;-76
2023/03/31 15:20:45;;;;;;;1.50;1.30;;;;;;;16.70;45.45;97263.50;7053882;28;20729;-76
2023/03/31 15:24:07;;;;;;;1.23;1.20;;;;;;;17.23;44.93;97261.78;7054136;28;20701;-76
2023/03/31 15:27:33;;;;;;;1.87;1.40;;;;;;;17.11;45.16;97274.94;7062246;27;20203;-77
2023/03/31 15:30:55;;;;;;;1.57;1.30;;;;;;;17.84;43.63;97262.88;7080511;27;20206;-79
2023/03/31 15:34:21;;;;;;;1.43;1.20;;;;;;;16.89;45.38;97222.81;7079491;27;20235;-77
2023/03/31 15:37:44;;;;;;;1.53;1.43;;;;;;;17.11;45.05;97270.31;7082431;27;20539;-78
2023/03/31 15:41:11;;;;;;;1.57;1.47;;;;;;;16.87;45.61;97290.34;7080506;27;20209;-78
2023/03/31 15:44:38;;;;;;;2.03;1.20;;;;;;;17.40;44.39;97294.91;7082378;27;20223;-77
2023/03/31 15:48:01;;;;;;;1.53;1.43;;;;;;;16.76;45.44;97286.06;7081237;27;20684;-77
2023/03/31 15:51:25;;;;;;;2.53;1.43;;;;;;;17.16;45.81;97277.63;7081030;27;20255;-77
2023/03/31 15:54:48;;;;;;;1.40;1.23;;;;;;;17.42;44.88;97285.38;7081599;27;20227;-77
2023/03/31 15:58:15;;;;;;;4.20;1.43;;;;;;;16.41;46.90;97292.50;7081969;27;20255;-77
2023/03/31 16:01:39;;;;;;;2.97;1.73;;;;;;;16.63;46.40;97279.31;7080959;27;20268;-78
2023/03/31 16:05:02;;;;;;;2.67;1.47;;;;;;;16.72;45.53;97296.69;7081483;27;20282;-77
2023/03/31 16:08:28;;;;;;;3.10;1.50;;;;;;;16.09;46.71;97278.44;7081912;27;20206;-77